42.1°F
Current conditions from King Hill
Updated every 5 minutes
 
  Friday October 31, 2014

Station Historical Data
Daily Summary for March 18, 2012 Units:  English    Metric   Both
« Previous Day
Next Day »
Daily Weekly Monthly Yearly Custom
  High: Low: Average:
Temperature: 76.0 °F 47.4 °F 60.6 °F
Dew Point: 50.3 °F 36.6 °F 44.8 °F
Humidity: 79% 39% 57%
Wind Speed: 11.0mph 1.0mph 6.5mph
Wind Gust: 21.0mph - -
Wind- - SSW
Pressure: 30.18 in 30.02 in -
Precipitation: 0.00 in    
Historical Graphs
 
 
Tabular Data for March 18, 2012
Time Temperature Dew Point Pressure Wind Wind Speed Wind Gust Humidity Daily Rainfall
00:00 49.9 °F 36.6 °F 30.17 in SSW 7.0 mph 14.0 mph 60% 0.01 in
00:05 50.0 °F 36.7 °F 30.17 in SSW 7.0 mph 14.0 mph 60% 0.00 in
00:10 50.1 °F 36.8 °F 30.17 in SSW 8.0 mph 12.0 mph 60% 0.00 in
00:15 49.9 °F 36.6 °F 30.17 in SSW 7.0 mph 12.0 mph 60% 0.00 in
00:20 49.7 °F 36.8 °F 30.17 in SSW 6.0 mph 12.0 mph 61% 0.00 in
00:30 50.0 °F 37.1 °F 30.17 in SSW 8.0 mph 15.0 mph 61% 0.00 in
00:35 50.8 °F 37.8 °F 30.17 in SSW 8.0 mph 16.0 mph 61% 0.00 in
00:40 51.2 °F 37.8 °F 30.17 in SSW 7.0 mph 17.0 mph 60% 0.00 in
00:50 52.0 °F 38.6 °F 30.17 in SSW 9.0 mph 17.0 mph 60% 0.00 in
00:55 52.1 °F 38.6 °F 30.17 in SSW 8.0 mph 20.0 mph 60% 0.00 in
01:00 51.9 °F 38.5 °F 30.17 in SSW 7.0 mph 20.0 mph 60% 0.00 in
01:05 51.7 °F 38.7 °F 30.17 in SSW 7.0 mph 17.0 mph 61% 0.00 in
01:15 51.8 °F 38.8 °F 30.17 in SSW 9.0 mph 21.0 mph 61% 0.00 in
01:20 51.6 °F 38.6 °F 30.17 in SSW 8.0 mph 21.0 mph 61% 0.00 in
01:25 51.5 °F 38.5 °F 30.17 in SSW 8.0 mph 15.0 mph 61% 0.00 in
01:30 51.8 °F 38.8 °F 30.17 in SSW 8.0 mph 14.0 mph 61% 0.00 in
01:35 51.9 °F 39.3 °F 30.17 in SSW 8.0 mph 14.0 mph 62% 0.00 in
01:40 52.2 °F 39.2 °F 30.17 in SSW 8.0 mph 17.0 mph 61% 0.00 in
01:45 52.4 °F 39.4 °F 30.17 in SSW 7.0 mph 17.0 mph 61% 0.00 in
01:50 52.6 °F 39.5 °F 30.17 in SSW 8.0 mph 15.0 mph 61% 0.00 in
01:55 52.7 °F 39.6 °F 30.17 in SSW 8.0 mph 15.0 mph 61% 0.00 in
02:00 53.1 °F 39.2 °F 30.17 in SSW 11.0 mph 19.0 mph 59% 0.00 in
02:05 53.1 °F 39.2 °F 30.18 in SSW 8.0 mph 19.0 mph 59% 0.00 in
02:10 53.2 °F 39.3 °F 30.17 in SSW 9.0 mph 17.0 mph 59% 0.00 in
02:15 53.1 °F 39.2 °F 30.18 in SSW 8.0 mph 16.0 mph 59% 0.00 in
02:20 53.0 °F 39.1 °F 30.17 in SSW 8.0 mph 14.0 mph 59% 0.00 in
02:25 53.0 °F 39.1 °F 30.18 in SSW 7.0 mph 15.0 mph 59% 0.00 in
02:30 53.0 °F 39.1 °F 30.17 in SSW 7.0 mph 18.0 mph 59% 0.00 in
02:40 53.3 °F 39.3 °F 30.17 in SSW 7.0 mph 15.0 mph 59% 0.00 in
02:45 53.4 °F 39.0 °F 30.17 in SSW 6.0 mph 16.0 mph 58% 0.00 in
02:50 53.5 °F 39.1 °F 30.17 in SSW 9.0 mph 18.0 mph 58% 0.00 in
02:55 53.5 °F 39.5 °F 30.17 in SSW 7.0 mph 18.0 mph 59% 0.00 in
03:00 53.5 °F 39.5 °F 30.17 in SSW 10.0 mph 17.0 mph 59% 0.00 in
03:05 53.6 °F 39.6 °F 30.17 in SSW 7.0 mph 17.0 mph 59% 0.00 in
03:10 53.4 °F 39.4 °F 30.16 in SSW 8.0 mph 16.0 mph 59% 0.00 in
03:15 53.3 °F 39.3 °F 30.17 in SSW 7.0 mph 16.0 mph 59% 0.00 in
03:20 53.1 °F 39.6 °F 30.16 in SSW 8.0 mph 15.0 mph 60% 0.00 in
03:25 53.1 °F 39.6 °F 30.16 in SSW 10.0 mph 18.0 mph 60% 0.00 in
03:30 53.1 °F 39.6 °F 30.16 in SSW 8.0 mph 18.0 mph 60% 0.00 in
03:35 53.0 °F 39.5 °F 30.16 in SSW 9.0 mph 17.0 mph 60% 0.00 in
03:45 52.6 °F 39.5 °F 30.16 in SSW 8.0 mph 16.0 mph 61% 0.00 in
03:50 52.4 °F 39.8 °F 30.16 in SSW 8.0 mph 13.0 mph 62% 0.00 in
03:55 52.3 °F 39.7 °F 30.16 in SSW 9.0 mph 16.0 mph 62% 0.00 in
04:00 52.1 °F 39.5 °F 30.15 in SSW 8.0 mph 18.0 mph 62% 0.00 in
04:05 51.9 °F 39.3 °F 30.16 in SSW 7.0 mph 18.0 mph 62% 0.00 in
04:10 51.7 °F 39.5 °F 30.16 in SSW 9.0 mph 14.0 mph 63% 0.00 in
04:15 51.5 °F 39.3 °F 30.16 in SSW 8.0 mph 13.0 mph 63% 0.00 in
04:20 51.4 °F 39.2 °F 30.16 in SSW 8.0 mph 13.0 mph 63% 0.00 in
04:25 51.3 °F 39.5 °F 30.16 in SSW 7.0 mph 14.0 mph 64% 0.00 in
04:30 51.5 °F 39.3 °F 30.16 in SSW 8.0 mph 18.0 mph 63% 0.00 in
04:40 51.5 °F 39.7 °F 30.16 in SSW 7.0 mph 17.0 mph 64% 0.00 in
04:45 51.4 °F 40.0 °F 30.16 in SSW 9.0 mph 17.0 mph 65% 0.00 in
04:50 51.3 °F 39.9 °F 30.16 in SSW 9.0 mph 16.0 mph 65% 0.00 in
04:55 51.2 °F 40.2 °F 30.16 in SSW 9.0 mph 13.0 mph 66% 0.00 in
05:00 51.2 °F 40.2 °F 30.16 in SSW 7.0 mph 14.0 mph 66% 0.00 in
05:05 51.0 °F 40.0 °F 30.16 in SSW 8.0 mph 15.0 mph 66% 0.00 in
05:10 50.8 °F 40.2 °F 30.16 in SSW 8.0 mph 15.0 mph 67% 0.00 in
05:15 50.5 °F 40.3 °F 30.16 in SSW 7.0 mph 14.0 mph 68% 0.00 in
05:20 50.5 °F 40.3 °F 30.16 in SSW 8.0 mph 14.0 mph 68% 0.00 in
05:25 50.6 °F 40.8 °F 30.16 in SSW 8.0 mph 16.0 mph 69% 0.00 in
05:30 50.5 °F 41.1 °F 30.16 in SSW 8.0 mph 17.0 mph 70% 0.00 in
05:35 50.4 °F 41.4 °F 30.17 in SSW 9.0 mph 17.0 mph 71% 0.00 in
05:45 50.3 °F 41.3 °F 30.17 in SW 7.0 mph 16.0 mph 71% 0.00 in
05:50 50.2 °F 41.5 °F 30.17 in SSW 7.0 mph 14.0 mph 72% 0.00 in
05:55 49.8 °F 41.1 °F 30.17 in SSW 8.0 mph 14.0 mph 72% 0.00 in
06:00 49.6 °F 41.0 °F 30.17 in SSW 9.0 mph 14.0 mph 72% 0.00 in
06:05 49.6 °F 41.3 °F 30.17 in SSW 10.0 mph 14.0 mph 73% 0.00 in
06:10 49.5 °F 41.2 °F 30.16 in SSW 7.0 mph 15.0 mph 73% 0.00 in
06:15 49.4 °F 41.1 °F 30.16 in SSW 8.0 mph 15.0 mph 73% 0.00 in
06:20 49.4 °F 41.1 °F 30.16 in SSW 8.0 mph 15.0 mph 73% 0.00 in
06:25 49.5 °F 41.2 °F 30.16 in SSW 9.0 mph 15.0 mph 73% 0.00 in
06:30 49.4 °F 41.1 °F 30.16 in SSW 8.0 mph 15.0 mph 73% 0.00 in
06:35 49.2 °F 40.9 °F 30.16 in SW 9.0 mph 14.0 mph 73% 0.00 in
06:39 48.9 °F 41.0 °F 30.16 in SW 8.0 mph 14.0 mph 74% 0.00 in
06:45 48.5 °F 40.6 °F 30.16 in SW 8.0 mph 13.0 mph 74% 0.00 in
06:55 48.2 °F 42.0 °F 30.17 in SW 8.0 mph 14.0 mph 79% 0.00 in
07:00 48.1 °F 40.9 °F 30.17 in SSW 10.0 mph 14.0 mph 76% 0.00 in
07:05 48.1 °F 40.9 °F 30.17 in SSW 7.0 mph 14.0 mph 76% 0.00 in
07:09 47.9 °F 40.7 °F 30.17 in SSW 7.0 mph 13.0 mph 76% 0.00 in
07:15 47.7 °F 40.8 °F 30.17 in SSW 6.0 mph 13.0 mph 77% 0.00 in
07:20 47.6 °F 40.8 °F 30.17 in SW 9.0 mph 13.0 mph 77% 0.00 in
07:25 47.6 °F 40.8 °F 30.17 in SSW 9.0 mph 15.0 mph 77% 0.00 in
07:35 47.4 °F 40.6 °F 30.17 in SSW 7.0 mph 13.0 mph 77% 0.00 in
07:40 47.4 °F 40.6 °F 30.17 in SW 9.0 mph 13.0 mph 77% 0.00 in
07:49 47.7 °F 41.2 °F 30.17 in SW 10.0 mph 17.0 mph 78% 0.00 in
07:55 47.9 °F 41.4 °F 30.17 in SSW 8.0 mph 17.0 mph 78% 0.00 in
07:59 48.2 °F 41.3 °F 30.18 in SW 10.0 mph 16.0 mph 77% 0.00 in
08:05 48.6 °F 41.7 °F 30.17 in SW 9.0 mph 16.0 mph 77% 0.00 in
08:10 48.9 °F 42.0 °F 30.18 in SW 9.0 mph 15.0 mph 77% 0.00 in
08:15 49.2 °F 42.0 °F 30.18 in SW 9.0 mph 16.0 mph 76% 0.00 in
08:19 49.5 °F 42.3 °F 30.17 in SSW 11.0 mph 16.0 mph 76% 0.00 in
08:25 49.7 °F 42.1 °F 30.17 in SW 11.0 mph 17.0 mph 75% 0.00 in
08:30 50.0 °F 42.4 °F 30.17 in SW 10.0 mph 18.0 mph 75% 0.00 in
08:35 50.2 °F 42.2 °F 30.18 in SW 11.0 mph 18.0 mph 74% 0.00 in
08:45 50.9 °F 42.9 °F 30.18 in SW 10.0 mph 18.0 mph 74% 0.00 in
08:55 51.9 °F 43.2 °F 30.18 in SW 9.0 mph 16.0 mph 72% 0.00 in
08:59 52.4 °F 43.6 °F 30.18 in SW 8.0 mph 18.0 mph 72% 0.00 in
09:05 52.6 °F 43.5 °F 30.18 in SSW 9.0 mph 19.0 mph 71% 0.00 in
09:10 53.0 °F 43.5 °F 30.18 in SW 8.0 mph 19.0 mph 70% 0.00 in
09:14 53.3 °F 43.8 °F 30.18 in SW 8.0 mph 19.0 mph 70% 0.00 in
09:20 53.6 °F 43.7 °F 30.18 in SW 10.0 mph 18.0 mph 69% 0.00 in
09:25 53.8 °F 43.9 °F 30.18 in SSW 7.0 mph 17.0 mph 69% 0.00 in
09:30 54.2 °F 43.9 °F 30.18 in SSW 8.0 mph 17.0 mph 68% 0.00 in
09:35 54.3 °F 44.0 °F 30.18 in SW 9.0 mph 17.0 mph 68% 0.00 in
09:44 55.1 °F 44.3 °F 30.18 in SSW 7.0 mph 17.0 mph 67% 0.00 in
09:50 55.5 °F 44.3 °F 30.18 in SSW 9.0 mph 16.0 mph 66% 0.00 in
09:54 55.8 °F 44.6 °F 30.18 in SSW 9.0 mph 18.0 mph 66% 0.00 in
10:00 56.1 °F 44.5 °F 30.18 in SSW 7.0 mph 18.0 mph 65% 0.00 in
10:05 56.6 °F 45.0 °F 30.18 in SW 8.0 mph 16.0 mph 65% 0.00 in
10:09 57.2 °F 44.7 °F 30.18 in SW 8.0 mph 15.0 mph 63% 0.00 in
10:15 57.5 °F 45.4 °F 30.18 in SSW 6.0 mph 15.0 mph 64% 0.00 in
10:20 58.1 °F 45.6 °F 30.18 in SSW 7.0 mph 15.0 mph 63% 0.00 in
10:25 58.4 °F 45.4 °F 30.18 in SW 5.0 mph 15.0 mph 62% 0.00 in
10:30 58.6 °F 45.2 °F 30.18 in SSW 8.0 mph 17.0 mph 61% 0.00 in
10:35 59.0 °F 45.6 °F 30.18 in SW 5.0 mph 17.0 mph 61% 0.00 in
10:40 59.8 °F 46.3 °F 30.17 in SW 4.0 mph 13.0 mph 61% 0.00 in
10:50 60.7 °F 46.3 °F 30.17 in SSW 5.0 mph 14.0 mph 59% 0.00 in
10:55 61.6 °F 46.7 °F 30.18 in SW 5.0 mph 11.0 mph 58% 0.00 in
11:00 61.5 °F 46.1 °F 30.18 in SSW 6.0 mph 12.0 mph 57% 0.00 in
11:04 61.6 °F 46.7 °F 30.18 in South 7.0 mph 12.0 mph 58% 0.00 in
11:10 61.6 °F 46.2 °F 30.17 in SSW 7.0 mph 12.0 mph 57% 0.00 in
11:15 62.0 °F 46.6 °F 30.17 in SSW 8.0 mph 16.0 mph 57% 0.00 in
11:19 62.1 °F 46.2 °F 30.17 in SW 9.0 mph 16.0 mph 56% 0.00 in
11:25 62.3 °F 46.4 °F 30.17 in SW 6.0 mph 16.0 mph 56% 0.00 in
11:35 62.9 °F 47.0 °F 30.17 in SW 5.0 mph 13.0 mph 56% 0.00 in
11:40 63.2 °F 47.3 °F 30.17 in SW 5.0 mph 13.0 mph 56% 0.00 in
11:50 64.1 °F 47.1 °F 30.17 in South 5.0 mph 13.0 mph 54% 0.00 in
11:55 64.6 °F 47.1 °F 30.17 in SW 8.0 mph 14.0 mph 53% 0.00 in
11:59 64.6 °F 47.1 °F 30.16 in SSW 7.0 mph 14.0 mph 53% 0.00 in
12:05 64.8 °F 47.8 °F 30.16 in SW 5.0 mph 14.0 mph 54% 0.00 in
12:10 64.8 °F 47.3 °F 30.16 in SW 8.0 mph 14.0 mph 53% 0.00 in
12:20 65.9 °F 47.8 °F 30.15 in SSW 9.0 mph 15.0 mph 52% 0.00 in
12:25 66.1 °F 47.5 °F 30.15 in SSW 9.0 mph 17.0 mph 51% 0.00 in
12:35 66.7 °F 49.0 °F 30.14 in SW 6.0 mph 17.0 mph 53% 0.00 in
12:40 66.9 °F 48.2 °F 30.15 in SSW 8.0 mph 15.0 mph 51% 0.00 in
12:44 67.2 °F 47.9 °F 30.14 in SW 8.0 mph 15.0 mph 50% 0.00 in
12:50 67.8 °F 48.0 °F 30.14 in SSW 10.0 mph 14.0 mph 49% 0.00 in
12:55 68.6 °F 48.7 °F 30.14 in SSW 6.0 mph 14.0 mph 49% 0.00 in
12:59 68.9 °F 49.0 °F 30.13 in SSW 6.0 mph 14.0 mph 49% 0.00 in
13:05 68.8 °F 48.3 °F 30.13 in SW 9.0 mph 16.0 mph 48% 0.00 in
13:10 69.0 °F 48.5 °F 30.13 in SSW 9.0 mph 16.0 mph 48% 0.00 in
13:14 69.3 °F 48.2 °F 30.12 in SSW 7.0 mph 15.0 mph 47% 0.00 in
13:20 70.1 °F 50.1 °F 30.12 in SW 7.0 mph 15.0 mph 49% 0.00 in
13:25 69.9 °F 48.8 °F 30.12 in SW 10.0 mph 17.0 mph 47% 0.00 in
13:30 70.2 °F 47.9 °F 30.12 in SSW 10.0 mph 17.0 mph 45% 0.00 in
13:35 70.3 °F 48.6 °F 30.11 in SSW 7.0 mph 15.0 mph 46% 0.00 in
13:45 71.3 °F 48.9 °F 30.11 in South 7.0 mph 13.0 mph 45% 0.00 in
13:50 71.5 °F 49.1 °F 30.10 in SSW 8.0 mph 12.0 mph 45% 0.00 in
13:55 71.3 °F 48.9 °F 30.10 in SSW 8.0 mph 17.0 mph 45% 0.00 in
14:00 71.2 °F 49.4 °F 30.10 in SSW 8.0 mph 17.0 mph 46% 0.00 in
14:05 71.5 °F 48.5 °F 30.10 in SSW 8.0 mph 15.0 mph 44% 0.00 in
14:10 71.5 °F 48.5 °F 30.10 in SSW 9.0 mph 15.0 mph 44% 0.00 in
14:14 72.1 °F 49.0 °F 30.09 in SSW 10.0 mph 16.0 mph 44% 0.00 in
14:20 72.5 °F 50.0 °F 30.09 in SSW 5.0 mph 16.0 mph 45% 0.00 in
14:24 72.8 °F 49.6 °F 30.08 in South 7.0 mph 16.0 mph 44% 0.00 in
14:30 73.5 °F 50.3 °F 30.08 in SW 5.0 mph 12.0 mph 44% 0.00 in
14:35 73.8 °F 49.3 °F 30.08 in SSW 8.0 mph 14.0 mph 42% 0.00 in
14:40 73.7 °F 49.2 °F 30.08 in SSW 8.0 mph 14.0 mph 42% 0.00 in
14:45 74.0 °F 50.1 °F 30.08 in South 6.0 mph 13.0 mph 43% 0.00 in
14:55 73.9 °F 50.0 °F 30.07 in SSW 7.0 mph 16.0 mph 43% 0.00 in
15:00 73.7 °F 49.2 °F 30.07 in SSW 9.0 mph 15.0 mph 42% 0.00 in
15:05 73.7 °F 49.2 °F 30.07 in SW 8.0 mph 15.0 mph 42% 0.00 in
15:10 74.5 °F 49.9 °F 30.07 in SSW 7.0 mph 13.0 mph 42% 0.00 in
15:15 74.9 °F 49.6 °F 30.06 in SSW 6.0 mph 13.0 mph 41% 0.00 in
15:20 74.8 °F 49.6 °F 30.06 in SSW 8.0 mph 16.0 mph 41% 0.00 in
15:25 74.8 °F 48.9 °F 30.06 in SSW 9.0 mph 16.0 mph 40% 0.00 in
15:29 75.1 °F 49.2 °F 30.06 in SSW 6.0 mph 14.0 mph 40% 0.00 in
15:35 75.3 °F 49.3 °F 30.06 in SSW 6.0 mph 14.0 mph 40% 0.00 in
15:40 75.7 °F 49.0 °F 30.06 in SSW 6.0 mph 14.0 mph 39% 0.00 in
15:45 75.4 °F 49.4 °F 30.06 in SSW 7.0 mph 13.0 mph 40% 0.00 in
15:50 75.6 °F 48.9 °F 30.06 in SSW 7.0 mph 13.0 mph 39% 0.00 in
15:55 75.7 °F 49.0 °F 30.05 in SW 7.0 mph 12.0 mph 39% 0.00 in
15:59 76.0 °F 50.0 °F 30.06 in SSW 4.0 mph 12.0 mph 40% 0.00 in
16:05 76.0 °F 49.3 °F 30.05 in SSW 6.0 mph 12.0 mph 39% 0.00 in
16:10 75.5 °F 48.8 °F 30.05 in SW 5.0 mph 12.0 mph 39% 0.00 in
16:15 75.8 °F 49.1 °F 30.05 in SW 7.0 mph 12.0 mph 39% 0.00 in
16:20 76.0 °F 50.0 °F 30.05 in SSW 3.0 mph 11.0 mph 40% 0.00 in
16:25 76.0 °F 49.3 °F 30.05 in SSW 7.0 mph 13.0 mph 39% 0.00 in
16:30 75.4 °F 49.4 °F 30.05 in SSW 7.0 mph 13.0 mph 40% 0.00 in
16:34 75.6 °F 49.6 °F 30.05 in SSW 6.0 mph 12.0 mph 40% 0.00 in
16:40 75.5 °F 49.5 °F 30.04 in SSW 5.0 mph 11.0 mph 40% 0.00 in
16:45 75.4 °F 49.4 °F 30.05 in SSW 7.0 mph 14.0 mph 40% 0.00 in
16:50 75.3 °F 50.0 °F 30.04 in South 2.0 mph 14.0 mph 41% 0.00 in
16:55 75.4 °F 49.4 °F 30.04 in SSW 5.0 mph 15.0 mph 40% 0.00 in
17:00 75.1 °F 49.8 °F 30.04 in SSW 2.0 mph 15.0 mph 41% 0.00 in
17:05 75.3 °F 50.0 °F 30.04 in SW 4.0 mph 11.0 mph 41% 0.00 in
17:10 75.3 °F 49.3 °F 30.04 in SSW 4.0 mph 12.0 mph 40% 0.00 in
17:15 75.2 °F 49.9 °F 30.03 in SSW 4.0 mph 12.0 mph 41% 0.00 in
17:19 75.3 °F 50.0 °F 30.03 in SSW 2.0 mph 11.0 mph 41% 0.00 in
17:25 75.2 °F 49.2 °F 30.03 in SW 5.0 mph 10.0 mph 40% 0.00 in
17:30 74.8 °F 49.6 °F 30.03 in SW 6.0 mph 10.0 mph 41% 0.00 in
17:35 74.6 °F 49.4 °F 30.03 in SW 5.0 mph 10.0 mph 41% 0.00 in
17:39 74.4 °F 49.8 °F 30.03 in SW 6.0 mph 10.0 mph 42% 0.00 in
17:45 74.1 °F 49.6 °F 30.03 in SSW 6.0 mph 13.0 mph 42% 0.00 in
17:50 73.7 °F 49.2 °F 30.03 in SSW 4.0 mph 13.0 mph 42% 0.00 in
17:54 73.5 °F 49.0 °F 30.02 in SSW 3.0 mph 11.0 mph 42% 0.00 in
18:00 73.3 °F 49.5 °F 30.03 in SSW 5.0 mph 11.0 mph 43% 0.00 in
18:05 73.1 °F 49.3 °F 30.02 in SW 4.0 mph 9.0 mph 43% 0.00 in
18:10 72.8 °F 49.6 °F 30.03 in SW 4.0 mph 9.0 mph 44% 0.00 in
18:15 72.4 °F 49.9 °F 30.02 in SSW 2.0 mph 9.0 mph 45% 0.00 in
18:20 71.7 °F 49.2 °F 30.02 in SSW 3.0 mph 9.0 mph 45% 0.00 in
18:25 71.3 °F 49.5 °F 30.02 in SSW 4.0 mph 10.0 mph 46% 0.00 in
18:30 70.9 °F 49.1 °F 30.02 in SSW 2.0 mph 10.0 mph 46% 0.00 in
18:35 70.4 °F 49.2 °F 30.02 in SW 2.0 mph 10.0 mph 47% 0.00 in
18:40 69.9 °F 48.8 °F 30.02 in SSW 4.0 mph 10.0 mph 47% 0.00 in
18:45 69.4 °F 48.9 °F 30.02 in SSW 1.0 mph 8.0 mph 48% 0.00 in
18:49 68.9 °F 49.0 °F 30.02 in Calm   6.0 mph 49% 0.00 in
18:55 68.1 °F 48.2 °F 30.02 in SSW 1.0 mph 6.0 mph 49% 0.00 in
19:05 66.9 °F 48.2 °F 30.02 in SSW 1.0 mph 6.0 mph 51% 0.00 in
19:09 66.5 °F 48.4 °F 30.02 in Calm   6.0 mph 52% 0.00 in
19:15 66.0 °F 47.9 °F 30.02 in Calm   6.0 mph 52% 0.00 in
19:20 65.6 °F 48.0 °F 30.02 in Calm   5.0 mph 53% 0.00 in
19:25 65.2 °F 48.2 °F 30.02 in Calm   1.0 mph 54% 0.00 in
19:30 64.6 °F 47.6 °F 30.02 in Calm   1.0 mph 54% 0.00 in
19:35 64.0 °F 47.5 °F 30.02 in Calm   1.0 mph 55% 0.00 in
19:40 63.8 °F 47.8 °F 30.02 in Calm   3.0 mph 56% 0.00 in
19:50 62.8 °F 47.8 °F 30.02 in Calm   3.0 mph 58% 0.00 in
19:55 62.2 °F 47.7 °F 30.02 in Calm   1.0 mph 59% 0.00 in
19:59 62.0 °F 47.5 °F 30.03 in Calm   1.0 mph 59% 0.00 in
20:05 61.2 °F 48.1 °F 30.03 in Calm   1.0 mph 62% 0.00 in
20:10 60.7 °F 47.6 °F 30.03 in Calm   1.0 mph 62% 0.00 in
20:15 60.5 °F 47.0 °F 30.03 in SSW 2.0 mph 4.0 mph 61% 0.00 in
20:20 61.1 °F 46.7 °F 30.03 in SSW 4.0 mph 6.0 mph 59% 0.00 in
20:25 61.6 °F 46.7 °F 30.03 in SSW 3.0 mph 7.0 mph 58% 0.00 in
20:30 62.3 °F 46.4 °F 30.03 in SSW 3.0 mph 7.0 mph 56% 0.00 in
20:35 62.3 °F 46.4 °F 30.03 in Calm   7.0 mph 56% 0.00 in
20:40 61.9 °F 46.0 °F 30.03 in Calm   5.0 mph 56% 0.00 in
20:50 61.3 °F 46.0 °F 30.03 in SSW 2.0 mph 6.0 mph 57% 0.00 in
20:55 61.4 °F 45.6 °F 30.03 in SW 2.0 mph 7.0 mph 56% 0.00 in
21:00 61.8 °F 46.0 °F 30.03 in SSW 4.0 mph 7.0 mph 56% 0.00 in
21:05 62.1 °F 45.8 °F 30.03 in SSW 4.0 mph 7.0 mph 55% 0.00 in
21:10 62.3 °F 45.9 °F 30.03 in SSW 2.0 mph 8.0 mph 55% 0.00 in
21:15 62.1 °F 45.8 °F 30.04 in SSW 3.0 mph 8.0 mph 55% 0.00 in
21:20 61.6 °F 45.8 °F 30.04 in SSW 3.0 mph 6.0 mph 56% 0.00 in
21:25 61.0 °F 45.7 °F 30.04 in SSW 2.0 mph 6.0 mph 57% 0.00 in
21:30 60.4 °F 45.6 °F 30.04 in SSW 2.0 mph 6.0 mph 58% 0.00 in
21:40 59.3 °F 45.4 °F 30.04 in SSW 2.0 mph 5.0 mph 60% 0.00 in
21:50 59.0 °F 45.6 °F 30.04 in SSW 3.0 mph 7.0 mph 61% 0.00 in
21:55 59.4 °F 45.5 °F 30.05 in SSW 3.0 mph 7.0 mph 60% 0.00 in
22:00 60.8 °F 45.9 °F 30.05 in SSW 4.0 mph 7.0 mph 58% 0.00 in
22:05 61.6 °F 46.2 °F 30.05 in SSW 4.0 mph 8.0 mph 57% 0.00 in
22:10 61.9 °F 46.0 °F 30.05 in SSW 2.0 mph 8.0 mph 56% 0.00 in
22:15 61.9 °F 46.0 °F 30.05 in SSW 3.0 mph 8.0 mph 56% 0.00 in
22:20 61.7 °F 46.3 °F 30.05 in SSW 3.0 mph 7.0 mph 57% 0.00 in
22:30 61.4 °F 46.5 °F 30.05 in SSW 3.0 mph 7.0 mph 58% 0.00 in
22:35 61.8 °F 46.9 °F 30.05 in SSW 3.0 mph 7.0 mph 58% 0.00 in
22:40 61.8 °F 46.9 °F 30.05 in SSW 4.0 mph 9.0 mph 58% 0.00 in
22:45 61.8 °F 46.9 °F 30.05 in SSW 3.0 mph 9.0 mph 58% 0.00 in
22:50 61.7 °F 46.8 °F 30.05 in SSW 2.0 mph 8.0 mph 58% 0.00 in
22:55 61.7 °F 46.8 °F 30.05 in SSW 3.0 mph 9.0 mph 58% 0.00 in
23:00 61.8 °F 46.9 °F 30.05 in SSW 3.0 mph 9.0 mph 58% 0.00 in
23:05 61.6 °F 46.7 °F 30.05 in SSW 3.0 mph 9.0 mph 58% 0.00 in
23:10 61.4 °F 46.5 °F 30.05 in SSW 2.0 mph 8.0 mph 58% 0.00 in
23:15 61.3 °F 46.9 °F 30.05 in Calm   7.0 mph 59% 0.00 in
23:20 61.1 °F 46.7 °F 30.05 in SSW 2.0 mph 7.0 mph 59% 0.00 in
23:25 61.0 °F 46.6 °F 30.05 in SSW 2.0 mph 6.0 mph 59% 0.00 in
23:35 61.2 °F 46.3 °F 30.05 in SSW 2.0 mph 7.0 mph 58% 0.00 in
23:40 61.2 °F 46.3 °F 30.05 in SSW 3.0 mph 7.0 mph 58% 0.00 in
23:50 61.6 °F 46.2 °F 30.05 in SSW 2.0 mph 7.0 mph 57% 0.00 in
23:55 61.3 °F 46.0 °F 30.05 in SSW 2.0 mph 7.0 mph 57% 0.00 in
Westford Weather
Compliments of Weather Underground

 
 
Current Radar Loop:

Copyright © WestfordWeather.net 2007-2014. All rights reserved.